Time;durP1;ratioP1;P1;durP2;ratioP2;P2;SDS_P1;SDS_P2;PMS_P1;PMS_P2;Temp;Humidity;BMP_temperature;BMP_pressure;BME280_temperature;BME280_humidity;BME280_pressure;Samples;Min_cycle;Max_cycle;Signal;HPM_P1;HPM_P2
2023/10/15 00:00:25;;;;;;;3.67;1.50;;;12.50;83.40;;;12.74;52.41;98955.75;5024416;27;119517;-80
2023/10/15 00:02:52;;;;;;;4.27;1.67;;;12.50;83.40;;;12.74;52.53;98956.56;5034180;27;123240;-80
2023/10/15 00:05:25;;;;;;;4.20;1.60;;;12.50;83.40;;;12.74;52.91;98951.03;5012570;27;124122;-80
2023/10/15 00:07:51;;;;;;;4.37;1.40;;;12.50;83.30;;;12.75;52.30;98957.38;5027724;27;119775;-80
2023/10/15 00:10:25;;;;;;;2.43;1.50;;;12.50;83.20;;;12.74;52.39;98955.75;5041075;27;118573;-80
2023/10/15 00:12:56;;;;;;;5.10;2.00;;;12.50;83.20;;;12.73;51.87;98949.38;5037704;27;124150;-80
2023/10/15 00:15:27;;;;;;;3.83;1.63;;;13.60;84.20;;;12.73;52.32;98949.38;5016947;27;123719;-81
2023/10/15 00:18:06;;;;;;;4.97;1.60;;;12.50;83.10;;;12.73;52.47;98935.50;5026846;27;119417;-80
2023/10/15 00:20:35;;;;;;;3.30;1.50;;;12.50;83.10;;;12.74;52.22;98942.72;5007324;27;118776;-80
2023/10/15 00:23:06;;;;;;;5.63;1.60;;;12.50;83.00;;;12.73;52.03;98943.81;5027286;27;123375;-84
2023/10/15 00:25:37;;;;;;;1.73;1.20;;;12.50;82.90;;;12.75;52.06;98940.75;5022900;27;123890;-82
2023/10/15 00:28:09;;;;;;;2.63;1.40;;;12.50;82.80;;;12.74;51.92;98951.03;5023521;28;119690;-79
2023/10/15 00:30:37;;;;;;;4.47;1.40;;;12.50;82.80;;;12.74;52.08;98944.66;5026464;27;118873;-83
2023/10/15 00:33:06;;;;;;;6.40;2.23;;;12.40;82.70;;;12.74;51.81;98942.72;5025590;27;124229;-81
2023/10/15 00:35:34;;;;;;;3.10;1.53;;;12.40;82.70;;;12.74;51.95;98947.44;5026137;28;123272;-81
2023/10/15 00:38:11;;;;;;;2.30;1.60;;;12.40;83.30;;;12.75;52.00;98946.28;5025492;27;119453;-83
2023/10/15 00:40:37;;;;;;;3.33;1.60;;;12.50;82.80;;;12.74;52.24;98945.47;5024103;27;118375;-80
2023/10/15 00:43:05;;;;;;;3.53;1.50;;;12.40;82.70;;;12.76;52.22;98953.47;5024665;27;124145;-80
2023/10/15 00:45:43;;;;;;;3.00;1.60;;;12.40;82.90;;;12.76;52.13;98945.13;5023621;27;123722;-81
2023/10/15 00:48:13;;;;;;;6.07;2.37;;;12.50;83.00;;;12.72;52.16;98953.31;5023873;27;120321;-84
2023/10/15 00:50:44;;;;;;;4.80;1.43;;;12.40;82.90;;;12.69;52.36;98947.59;5023356;28;119983;-82
2023/10/15 00:53:24;;;;;;;3.10;1.83;;;12.50;82.90;;;12.65;52.51;98944.63;5023155;27;124027;-84
2023/10/15 00:56:10;;;;;;;2.73;1.60;;;12.50;83.20;;;12.64;52.63;98942.19;5012749;27;123116;-80
2023/10/15 01:01:26;;;;;;;4.83;1.83;;;12.40;83.30;;;12.66;52.58;98932.41;5010839;27;119545;-82
2023/10/15 01:03:59;;;;;;;4.97;1.77;;;13.00;83.90;;;12.70;52.61;98922.31;5034903;27;123907;-81
2023/10/15 01:06:46;;;;;;;2.60;1.70;;;13.70;84.60;;;12.73;52.65;98923.63;5029574;27;123996;-81
2023/10/15 01:09:30;;;;;;;4.33;1.70;;;13.80;84.80;;;12.75;52.50;98937.97;5026186;27;120509;-84
2023/10/15 01:12:18;;;;;;;4.63;1.43;;;12.50;83.60;;;12.79;52.54;98923.16;5033567;27;118352;-83
2023/10/15 01:14:47;;;;;;;8.37;1.90;;;12.50;83.60;;;12.80;52.75;98921.19;5026376;27;124872;-83
2023/10/15 01:17:14;;;;;;;5.97;1.83;;;12.70;83.70;;;12.80;52.46;98916.44;5025410;28;123936;-84
2023/10/15 01:19:40;;;;;;;4.10;1.70;;;12.50;83.50;;;12.81;52.56;98923.66;5039035;27;119078;-86
2023/10/15 01:22:17;;;;;;;5.67;1.77;;;12.50;83.40;;;12.80;52.16;98913.69;5025420;27;119485;-84
2023/10/15 01:24:50;;;;;;;2.60;1.63;;;12.90;83.70;;;12.81;52.40;98918.09;5019325;27;123823;-83
2023/10/15 01:28:00;;;;;;;3.90;2.30;;;12.60;83.30;;;12.78;52.29;98917.91;5014108;28;124007;-81
2023/10/15 01:30:17;;;;;;;2.87;1.40;;;12.50;83.10;;;12.69;52.32;98925.41;5017747;27;119327;-81
2023/10/15 01:32:44;;;;;;;3.70;1.60;;;12.50;83.10;;;12.66;52.53;98915.78;5040286;27;118131;-81
2023/10/15 01:35:11;;;;;;;5.90;2.00;;;12.40;83.00;;;12.66;52.52;98920.53;5019788;27;124254;-81
2023/10/15 01:37:38;;;;;;;1.97;1.50;;;12.40;83.10;;;12.63;52.56;98927.53;5033070;27;123083;-82
2023/10/15 01:42:41;;;;;;;3.90;1.60;;;12.40;83.10;;;12.54;52.71;98918.34;5048157;27;120990;-81
2023/10/15 01:45:13;;;;;;;8.00;1.80;;;13.40;84.00;;;12.55;52.77;98917.25;5040415;27;124069;-81
2023/10/15 01:50:33;;;;;;;4.00;1.50;;;12.40;83.10;;;12.55;52.61;98926.38;5032012;27;119494;-84
2023/10/15 01:53:04;;;;;;;13.27;2.00;;;12.30;83.10;;;12.53;52.78;98928.63;5027474;27;118332;-85
2023/10/15 01:55:35;;;;;;;3.20;1.50;;;13.40;84.20;;;12.52;52.62;98920.63;5027914;27;124586;-84
2023/10/15 01:58:07;;;;;;;4.53;1.93;;;12.40;83.30;;;12.53;52.99;98927.81;5010487;27;123891;-83
2023/10/15 02:03:07;;;;;;;6.27;1.90;;;12.30;83.70;;;12.56;52.96;98922.44;5031041;27;119802;-83
2023/10/15 02:05:44;;;;;;;6.50;1.67;;;12.30;83.90;;;12.57;52.95;98918.56;5011838;28;122853;-84
2023/10/15 02:08:13;;;;;;;4.40;2.00;;;12.80;84.40;;;12.57;52.92;98921.31;5026492;27;123801;-81
2023/10/15 02:10:47;;;;;;;2.80;1.57;;;12.60;84.10;;;12.57;53.15;98923.25;5028972;27;119126;-85
2023/10/15 02:13:19;;;;;;;7.53;1.93;;;12.30;84.00;;;12.59;53.07;98920.97;5004493;27;117348;-85
2023/10/15 02:15:55;;;;;;;11.07;2.10;;;13.60;85.30;;;12.59;53.15;98915.44;5014325;28;122136;-85
2023/10/15 02:18:22;;;;;;;1.73;1.30;;;12.30;84.90;;;12.58;53.07;98913.81;5020504;28;123246;-82
2023/10/15 02:23:23;;;;;;;3.40;1.93;;;12.30;84.10;;;12.63;53.27;98904.50;5016256;28;119801;-85
2023/10/15 02:25:57;;;;;;;6.13;1.43;;;12.30;84.20;;;12.64;53.00;98903.38;5008827;28;122622;-85
2023/10/15 02:28:26;;;;;;;1.83;1.30;;;14.90;86.60;;;12.65;53.01;98897.50;5027125;27;122891;-85
2023/10/15 02:33:29;;;;;;;2.40;1.27;;;12.40;84.10;;;12.63;53.30;98897.03;5030535;27;120078;-84
2023/10/15 02:35:59;;;;;;;2.30;1.40;;;12.40;84.10;;;12.66;53.00;98890.03;5009077;28;123519;-85
2023/10/15 02:38:34;;;;;;;4.70;1.80;;;12.40;84.10;;;12.68;53.21;98890.50;5021124;27;124266;-88
2023/10/15 02:41:05;;;;;;;5.73;1.60;;;12.40;84.20;;;12.72;53.18;98902.59;5035392;27;119334;-86
2023/10/15 02:43:36;;;;;;;3.97;1.50;;;13.50;85.40;;;12.73;53.13;98902.25;5031645;27;118240;-86
2023/10/15 02:46:17;;;;;;;2.70;1.37;;;12.40;84.30;;;12.77;53.03;98897.69;5037112;27;123359;-86
2023/10/15 02:48:54;;;;;;;4.67;1.77;;;12.40;84.30;;;12.79;52.80;98903.75;5036580;27;123286;-86
2023/10/15 02:51:24;;;;;;;3.33;1.60;;;12.70;84.50;;;12.80;52.63;98894.28;5027762;28;117337;-87
2023/10/15 02:54:03;;;;;;;3.30;1.53;;;12.50;84.30;;;12.82;52.77;98885.63;5051269;27;119278;-85
2023/10/15 02:56:30;;;;;;;5.97;1.73;;;12.50;84.00;;;12.81;52.74;98901.47;5005653;28;123973;-87
2023/10/15 02:58:56;;;;;;;2.33;1.27;;;12.50;83.90;;;12.80;52.82;98905.38;5010206;28;124118;-89
2023/10/15 03:01:23;;;;;;;1.73;1.10;;;13.00;84.40;;;12.78;52.70;98902.09;5030604;27;119230;-86
2023/10/15 03:04:07;;;;;;;7.60;1.90;;;12.60;83.80;;;12.77;52.67;98900.47;5034515;28;118976;-86
2023/10/15 03:06:35;;;;;;;3.70;1.83;;;12.50;83.70;;;12.78;52.88;98893.78;4993674;28;123357;-86
2023/10/15 03:09:11;;;;;;;4.80;1.60;;;12.50;83.80;;;12.79;52.84;98900.97;5013457;28;123008;-87
2023/10/15 03:11:38;;;;;;;3.10;1.50;;;12.50;83.70;;;12.79;53.08;98903.75;5029889;27;117594;-86
2023/10/15 03:14:06;;;;;;;2.67;1.47;;;12.50;83.80;;;12.80;53.02;98894.28;5010000;28;120130;-86
2023/10/15 03:16:33;;;;;;;3.30;1.60;;;12.50;83.80;;;12.82;52.80;98894.78;5002800;28;123192;-87
2023/10/15 03:19:19;;;;;;;4.90;1.80;;;12.60;84.00;;;12.86;52.90;98902.44;5010342;28;123825;-86
2023/10/15 03:21:45;;;;;;;7.47;1.90;;;12.60;84.20;;;12.83;52.85;98896.38;5009961;28;119105;-86
2023/10/15 03:24:14;;;;;;;2.90;1.87;;;12.70;84.30;;;12.83;53.01;98892.81;5005711;28;119544;-85
2023/10/15 03:26:47;;;;;;;3.70;1.43;;;12.60;84.30;;;12.81;52.96;98890.38;5027018;28;124457;-86
2023/10/15 03:29:14;;;;;;;3.77;1.77;;;13.30;85.00;;;12.83;53.32;98899.16;5026964;27;121773;-86
2023/10/15 03:31:48;;;;;;;2.93;1.30;;;12.60;84.50;;;12.87;53.69;98887.41;5011447;28;118981;-88
2023/10/15 03:34:21;;;;;;;5.50;1.80;;;12.90;85.20;;;12.89;53.35;98885.94;4999946;28;119168;-88
2023/10/15 03:36:51;;;;;;;2.80;1.30;;;12.60;85.10;;;12.93;53.78;98897.22;5009003;28;123590;-87
2023/10/15 03:44:47;;;;;;;1.70;1.13;;;15.00;88.20;;;12.99;54.14;98893.94;5009405;28;119802;-87
2023/10/15 03:47:16;;;;;;;2.43;1.10;;;12.70;86.10;;;12.99;54.20;98893.16;5005614;28;124041;-86
2023/10/15 03:49:46;;;;;;;4.30;1.40;;;12.80;86.20;;;12.99;54.22;98898.69;5016935;28;122895;-87
2023/10/15 03:52:20;;;;;;;5.70;1.33;;;12.70;86.00;;;12.98;54.26;98899.84;5005712;28;119561;-86
2023/10/15 03:54:57;;;;;;;2.80;1.57;;;12.70;86.20;;;12.98;54.27;98905.38;5007290;28;119225;-86
2023/10/15 03:57:34;;;;;;;4.40;1.43;;;12.70;86.30;;;12.97;54.33;98896.22;5022188;28;124470;-86
2023/10/15 04:00:01;;;;;;;2.93;1.30;;;12.70;86.50;;;12.94;54.11;98909.94;5018591;28;124408;-86
2023/10/15 04:03:18;;;;;;;3.40;1.23;;;12.60;86.10;;;12.91;54.37;98894.78;5010731;28;118532;-87
2023/10/15 04:05:20;;;;;;;5.63;1.77;;;12.70;86.20;;;12.90;54.48;98895.09;5008268;28;119324;-87
2023/10/15 04:07:49;;;;;;;3.20;1.40;;;12.90;86.60;;;12.90;54.57;98904.25;5024734;27;123659;-86
2023/10/15 04:10:23;;;;;;;3.23;1.30;;;13.00;86.90;;;12.91;54.87;98902.28;5028490;27;124244;-86
2023/10/15 04:12:50;;;;;;;4.03;1.47;;;12.60;86.70;;;12.93;54.71;98900.00;5020232;27;119491;-87
2023/10/15 04:15:17;;;;;;;5.53;1.30;;;12.70;86.90;;;12.92;54.66;98899.19;5004925;27;119419;-86
2023/10/15 04:17:48;;;;;;;1.67;1.10;;;12.70;87.00;;;12.95;54.86;98908.78;5028918;27;124227;-88
2023/10/15 04:20:15;;;;;;;2.87;1.30;;;12.70;87.10;;;12.95;54.96;98901.31;4996480;27;123039;-88
2023/10/15 04:22:51;;;;;;;2.40;1.53;;;12.90;87.40;;;12.94;55.12;98901.63;5026798;27;119345;-87
2023/10/15 04:25:32;;;;;;;2.93;1.80;;;12.70;87.30;;;12.93;54.89;98900.81;5036370;27;118043;-85
2023/10/15 04:28:08;;;;;;;3.60;1.40;;;12.60;87.20;;;12.93;54.93;98897.22;5022279;27;124171;-87
2023/10/15 04:30:39;;;;;;;2.13;1.20;;;12.90;87.50;;;12.92;54.81;98901.13;5024144;27;124093;-86
2023/10/15 04:33:18;;;;;;;4.63;1.30;;;12.60;87.90;;;12.90;54.76;98908.97;5048780;27;119467;-88
2023/10/15 04:35:44;;;;;;;4.50;1.87;;;12.60;87.20;;;12.85;54.70;98909.94;5031960;27;117549;-86
2023/10/15 04:38:27;;;;;;;4.00;1.47;;;12.60;87.20;;;12.82;55.09;98905.84;5029197;28;124143;-86
2023/10/15 04:43:25;;;;;;;2.07;1.37;;;13.80;88.70;;;12.76;55.43;98904.41;5033737;27;119649;-86
2023/10/15 04:45:56;;;;;;;5.70;1.63;;;12.50;87.60;;;12.71;55.59;98901.78;5039562;27;117071;-86
2023/10/15 04:48:30;;;;;;;2.20;1.30;;;12.50;87.90;;;12.65;55.73;98903.06;5037606;28;124059;-87
2023/10/15 04:51:04;;;;;;;3.07;1.60;;;12.50;88.00;;;12.59;55.94;98909.91;5054431;27;123221;-87
2023/10/15 04:53:35;;;;;;;3.80;1.43;;;12.40;88.10;;;12.56;56.11;98910.53;5057064;27;118762;-86
2023/10/15 04:56:04;;;;;;;5.93;1.93;;;12.40;88.30;;;12.55;56.29;98911.69;5040370;27;118676;-86
2023/10/15 04:58:35;;;;;;;3.90;1.30;;;12.40;88.70;;;12.57;56.46;98904.69;5056374;27;123769;-84
2023/10/15 05:01:09;;;;;;;2.60;1.50;;;12.40;88.90;;;12.59;56.60;98909.91;5027673;27;122085;-86
2023/10/15 05:03:39;;;;;;;3.73;1.60;;;12.40;89.10;;;12.62;56.62;98900.94;5043018;27;120686;-87
2023/10/15 05:06:10;;;;;;;3.57;1.50;;;12.40;89.30;;;12.61;56.86;98913.16;5052539;27;120090;-87
2023/10/15 05:08:47;;;;;;;3.80;1.47;;;12.40;89.40;;;12.56;56.67;98916.91;5042474;28;123820;-86
2023/10/15 05:11:13;;;;;;;5.07;1.77;;;12.40;89.50;;;12.53;56.94;98920.31;5042736;27;124475;-86
2023/10/15 05:13:42;;;;;;;4.00;1.83;;;12.30;89.80;;;12.50;56.98;98911.84;5043053;27;118284;-87
2023/10/15 05:16:09;;;;;;;2.70;1.40;;;13.10;90.20;;;12.51;57.30;98916.25;5026690;28;117230;-86
2023/10/15 05:18:35;;;;;;;2.27;1.27;;;12.30;89.80;;;12.50;57.09;98920.97;5042831;28;124893;-85
2023/10/15 05:21:07;;;;;;;5.10;1.53;;;12.30;89.90;;;12.50;57.25;98917.38;5035688;27;122912;-85
2023/10/15 05:23:37;;;;;;;4.03;1.43;;;13.50;90.60;;;12.50;57.35;98914.63;5029664;27;118710;-87
2023/10/15 05:26:07;;;;;;;5.90;1.57;;;12.30;90.00;;;12.49;57.34;98922.13;5059772;27;116253;-86
2023/10/15 05:28:34;;;;;;;5.93;1.30;;;12.30;90.10;;;12.47;57.25;98915.25;5035010;27;124227;-86
2023/10/15 05:31:02;;;;;;;3.77;1.70;;;12.20;90.10;;;12.48;57.45;98917.69;5035464;28;122374;-87
2023/10/15 05:33:29;;;;;;;3.80;1.30;;;12.20;90.10;;;12.46;57.35;98917.19;5039921;27;119180;-86
2023/10/15 05:35:56;;;;;;;3.73;1.60;;;12.20;90.10;;;12.45;57.51;98920.31;5044458;28;118817;-86
2023/10/15 05:38:32;;;;;;;3.93;1.23;;;12.20;90.20;;;12.42;57.78;98918.19;5030272;27;123549;-86
2023/10/15 05:41:10;;;;;;;6.00;2.00;;;12.20;90.20;;;12.37;57.46;98925.50;5035274;27;120641;-86
2023/10/15 05:43:39;;;;;;;3.30;1.50;;;12.20;90.20;;;12.32;57.74;98914.56;5052090;27;119131;-85
2023/10/15 05:46:09;;;;;;;4.60;1.60;;;12.20;90.20;;;12.28;57.86;98927.44;5021106;28;117616;-87
2023/10/15 05:48:38;;;;;;;4.50;1.43;;;12.10;90.30;;;12.27;58.12;98933.28;5035563;27;122857;-87
2023/10/15 05:51:04;;;;;;;4.03;1.53;;;13.10;90.90;;;12.24;57.93;98937.50;5046691;27;123408;-86
2023/10/15 05:53:42;;;;;;;3.10;1.67;;;12.10;90.50;;;12.23;58.19;98941.41;5048887;27;120118;-86
2023/10/15 05:57:10;;;;;;;5.20;1.80;;;12.10;90.50;;;12.15;58.36;98950.50;5045506;28;118995;-87
2023/10/15 06:00:26;;;;;;;5.63;1.80;;;12.00;90.50;;;12.11;58.40;98955.03;5030443;28;123830;-86
2023/10/15 06:02:54;;;;;;;4.70;1.57;;;12.00;90.60;;;12.09;58.63;98957.31;5047656;28;124700;-87
2023/10/15 06:05:21;;;;;;;5.47;1.97;;;12.00;90.70;;;12.07;58.85;98954.06;5050541;27;119387;-87
2023/10/15 06:07:48;;;;;;;3.20;1.60;;;11.90;90.80;;;12.04;58.81;98955.50;5060342;27;118488;-89
2023/10/15 06:10:17;;;;;;;2.80;1.70;;;11.90;90.90;;;12.05;59.07;98950.78;5038572;27;122424;-88
2023/10/15 06:12:44;;;;;;;4.23;1.40;;;11.90;90.90;;;12.06;58.99;98957.94;5000583;27;123103;-90
2023/10/15 06:15:14;;;;;;;4.17;1.50;;;11.90;90.90;;;12.08;58.95;98953.72;5033005;28;118662;-89
2023/10/15 06:17:50;;;;;;;6.63;1.90;;;12.00;91.00;;;12.09;58.83;98957.31;5033427;27;119016;-89
2023/10/15 06:20:19;;;;;;;5.23;1.50;;;11.90;91.00;;;12.08;58.76;98961.22;5031643;27;123085;-88
2023/10/15 06:22:47;;;;;;;1.97;1.30;;;12.90;91.40;;;12.08;59.12;98970.34;5015024;28;123454;-89
2023/10/15 06:25:17;;;;;;;3.70;1.70;;;11.90;91.10;;;12.08;59.09;98966.75;5035488;28;119821;-88
2023/10/15 06:27:49;;;;;;;6.63;1.77;;;11.90;91.10;;;12.09;59.00;98972.00;5044962;27;119262;-88
2023/10/15 06:30:16;;;;;;;5.83;2.00;;;11.90;91.20;;;12.13;58.94;98966.63;5023208;27;123574;-88
2023/10/15 06:32:47;;;;;;;5.63;2.07;;;12.20;91.30;;;12.18;59.07;98963.72;5009978;28;123647;-88
2023/10/15 06:35:18;;;;;;;2.50;1.67;;;11.90;91.20;;;12.22;58.92;98970.25;5044425;27;119488;-88
2023/10/15 06:37:58;;;;;;;8.87;2.00;;;11.90;91.30;;;12.23;58.88;98974.66;5044769;27;119778;-88
2023/10/15 06:40:26;;;;;;;4.60;1.60;;;12.60;91.60;;;12.24;59.21;98970.75;5011365;27;123051;-88
2023/10/15 06:43:00;;;;;;;2.80;1.50;;;12.00;91.30;;;12.24;59.40;98965.19;5030850;28;124695;-89
2023/10/15 06:45:28;;;;;;;4.03;1.50;;;12.00;91.40;;;12.23;59.29;98966.34;5010065;27;119765;-90
2023/10/15 06:47:55;;;;;;;3.50;1.90;;;12.00;91.40;;;12.24;59.23;98976.28;5029950;27;120154;-89
2023/10/15 06:50:25;;;;;;;5.20;1.53;;;12.00;91.50;;;12.27;59.33;98986.72;5028180;28;123185;-89
2023/10/15 06:52:54;;;;;;;4.03;1.30;;;12.00;91.50;;;12.33;59.47;98991.00;5028249;28;122813;-90
2023/10/15 06:55:21;;;;;;;4.57;1.50;;;12.10;91.60;;;12.37;59.09;98997.53;5045466;27;118301;-90
2023/10/15 06:57:49;;;;;;;7.87;1.40;;;12.10;91.60;;;12.42;59.25;98993.81;5014149;27;119103;-89
2023/10/15 07:00:23;;;;;;;5.07;1.60;;;12.10;91.50;;;12.43;58.96;98994.63;5022965;27;123375;-89
2023/10/15 07:02:54;;;;;;;2.23;1.83;;;12.10;91.50;;;12.43;58.88;98994.63;5028733;27;124066;-88
2023/10/15 07:05:25;;;;;;;7.80;1.57;;;12.20;91.50;;;12.44;59.02;98999.00;5011678;28;118577;-90
2023/10/15 07:07:53;;;;;;;5.33;1.87;;;12.20;91.50;;;12.46;59.01;99007.84;5034480;27;119057;-88
2023/10/15 07:10:21;;;;;;;3.43;1.77;;;12.10;91.40;;;12.48;58.75;99011.09;5027926;27;123221;-89
2023/10/15 07:12:52;;;;;;;6.67;2.00;;;12.20;91.40;;;12.49;58.89;99008.03;5031932;27;123637;-87
2023/10/15 07:15:20;;;;;;;3.63;2.03;;;12.40;91.60;;;12.49;58.75;99007.19;5029188;27;119361;-89
2023/10/15 07:17:49;;;;;;;6.73;2.40;;;12.30;91.40;;;12.45;58.57;99008.97;5034725;27;118963;-89
2023/10/15 07:20:18;;;;;;;3.70;1.70;;;12.20;91.40;;;12.44;58.93;99001.78;5020943;27;123125;-88
2023/10/15 07:22:46;;;;;;;4.60;1.83;;;12.20;91.40;;;12.43;58.69;99008.47;5036526;27;123357;-89
2023/10/15 07:25:16;;;;;;;7.50;2.60;;;12.20;91.40;;;12.49;58.70;99009.97;5028972;27;118521;-90
2023/10/15 07:27:45;;;;;;;3.40;1.80;;;12.20;91.40;;;12.57;58.56;99017.50;5025081;27;117447;-90
2023/10/15 07:30:17;;;;;;;3.80;1.70;;;12.20;91.40;;;12.65;58.16;99021.44;5037346;27;124603;-89
2023/10/15 07:32:45;;;;;;;4.30;1.80;;;12.30;91.40;;;12.67;58.29;99016.41;5044436;27;122919;-88
2023/10/15 07:35:14;;;;;;;4.27;2.23;;;12.30;91.30;;;12.71;57.85;99012.66;5013052;28;121041;-89
2023/10/15 07:37:49;;;;;;;11.40;2.20;;;12.20;91.20;;;12.78;57.72;99023.28;5054005;27;119558;-88
2023/10/15 07:40:27;;;;;;;3.93;1.60;;;12.50;91.20;;;12.80;57.71;99019.03;5046739;27;123853;-87
2023/10/15 07:43:02;;;;;;;4.33;1.90;;;12.40;91.10;;;12.80;57.34;99027.38;5028176;27;123298;-88
2023/10/15 07:45:31;;;;;;;9.30;2.37;;;12.30;90.90;;;12.82;57.18;99022.31;5019968;27;120203;-88
2023/10/15 07:48:00;;;;;;;8.13;2.53;;;12.50;90.80;;;12.81;56.82;99033.72;5052038;27;119125;-89
2023/10/15 07:50:28;;;;;;;5.93;1.80;;;12.50;90.70;;;12.80;56.76;99032.91;5005237;28;124065;-88
2023/10/15 07:52:56;;;;;;;5.33;1.83;;;12.40;90.40;;;12.82;56.22;99036.19;5013675;27;122621;-92
2023/10/15 07:55:23;;;;;;;3.30;1.80;;;12.40;90.20;;;12.88;56.10;99033.25;5016223;27;118228;-92
2023/10/15 07:57:51;;;;;;;7.00;2.20;;;12.40;90.10;;;12.95;56.01;99039.97;5031516;27;119581;-92
2023/10/15 08:00:33;;;;;;;4.13;2.03;;;12.50;90.10;;;13.00;55.52;99036.22;5035254;27;123333;-92
2023/10/15 08:03:00;;;;;;;4.17;1.60;;;13.80;90.60;;;13.06;55.33;99021.06;5032288;27;123253;-91
2023/10/15 08:05:31;;;;;;;11.33;4.17;;;12.70;89.80;;;13.15;54.52;99030.22;5016729;28;119264;-92
2023/10/15 08:07:59;;;;;;;5.60;1.70;;;11.50;88.10;;;13.20;54.50;99032.84;5025880;27;119149;-92
2023/10/15 08:10:31;;;;;;;6.03;1.70;;;12.80;88.70;;;13.25;54.21;99032.69;5037399;27;124739;-93
2023/10/15 08:12:58;;;;;;;5.03;1.83;;;12.80;88.30;;;13.28;53.61;99027.66;5028413;27;123049;-91
2023/10/15 08:15:25;;;;;;;6.20;1.93;;;12.80;87.50;;;13.28;53.57;99030.44;5029220;27;119187;-91
2023/10/15 08:17:51;;;;;;;4.33;1.57;;;12.90;87.40;;;13.30;53.19;99033.69;5036025;27;118848;-93
2023/10/15 08:20:18;;;;;;;9.03;2.07;;;12.90;86.90;;;13.32;52.66;99036.97;5014625;28;123849;-91
2023/10/15 08:22:45;;;;;;;4.70;1.37;;;12.90;85.90;;;13.36;52.52;99037.97;5033210;27;122706;-92
2023/10/15 08:25:21;;;;;;;3.27;1.70;;;12.90;85.90;;;13.36;52.35;99022.13;5028023;27;120325;-92
2023/10/15 08:27:47;;;;;;;25.23;3.00;;;12.90;85.40;;;13.37;52.35;99037.63;5018363;27;118846;-93
2023/10/15 08:30:19;;;;;;;5.37;1.80;;;13.00;85.40;;;13.37;51.87;99042.34;5039421;27;123780;-93
2023/10/15 08:32:46;;;;;;;4.03;1.60;;;13.00;84.90;;;13.36;51.88;99036.00;5045903;27;124082;-92
2023/10/15 08:35:14;;;;;;;6.30;1.63;;;12.90;84.70;;;13.34;51.57;99045.78;5026873;27;119032;-93
2023/10/15 08:37:49;;;;;;;5.80;1.90;;;12.90;84.40;;;13.28;51.56;99047.09;5044221;27;118571;-93
2023/10/15 08:40:17;;;;;;;4.60;1.60;;;12.90;83.90;;;13.22;51.11;99038.06;5038715;27;122827;-90
2023/10/15 08:43:14;;;;;;;6.10;2.57;;;12.90;83.30;;;13.20;51.52;99038.38;5051095;27;122724;-91
2023/10/15 08:45:45;;;;;;;7.43;2.00;;;12.90;83.50;;;13.23;51.54;99042.47;5024532;28;118913;-93
2023/10/15 08:48:14;;;;;;;4.53;1.70;;;12.90;83.70;;;13.23;51.42;99045.25;5046826;27;118465;-91
2023/10/15 08:50:46;;;;;;;4.63;1.70;;;13.00;83.50;;;13.26;51.16;99045.44;5037783;27;123554;-91
2023/10/15 08:53:16;;;;;;;4.17;1.83;;;13.10;83.60;;;13.27;51.28;99046.25;5063876;27;123017;-94
2023/10/15 08:55:46;;;;;;;4.93;1.63;;;13.00;83.20;;;13.25;51.26;99046.56;5020407;27;118730;-94
2023/10/15 08:58:18;;;;;;;10.00;1.93;;;13.00;83.00;;;13.25;51.38;99048.53;5030760;27;118898;-94
2023/10/15 09:00:47;;;;;;;5.43;1.90;;;13.00;83.10;;;13.28;51.30;99049.88;5050416;27;124326;-92
2023/10/15 09:03:14;;;;;;;4.07;1.40;;;13.70;83.80;;;13.29;51.21;99043.16;5028680;27;124014;-92
2023/10/15 09:05:42;;;;;;;9.87;2.07;;;13.00;83.00;;;13.33;51.14;99044.97;5027815;27;119230;-92
2023/10/15 09:08:13;;;;;;;5.50;1.80;;;14.30;84.30;;;13.41;51.24;99051.69;5029285;27;117623;-95
2023/10/15 09:10:40;;;;;;;9.50;2.83;;;13.10;83.30;;;13.41;50.91;99066.38;5012438;27;121904;-90
2023/10/15 09:13:19;;;;;;;8.43;1.93;;;13.00;82.60;;;13.39;50.70;99062.28;5011680;28;123816;-93
2023/10/15 09:15:49;;;;;;;4.67;1.90;;;13.30;82.60;;;13.32;51.04;99053.59;5027334;27;119488;-92
2023/10/15 09:18:16;;;;;;;4.00;1.40;;;13.00;82.60;;;13.26;51.26;99062.09;5037160;27;120433;-91
2023/10/15 09:20:58;;;;;;;8.00;1.40;;;13.00;82.80;;;13.25;50.90;99067.94;5038693;27;123724;-88
2023/10/15 09:23:24;;;;;;;5.07;1.47;;;13.20;82.70;;;13.22;51.00;99061.09;5039544;27;123591;-89
2023/10/15 09:25:57;;;;;;;6.20;1.93;;;13.00;82.20;;;13.22;50.63;99065.81;5036547;27;118574;-90
2023/10/15 09:28:28;;;;;;;5.40;1.80;;;12.90;81.60;;;13.20;50.73;99057.81;5028081;28;118306;-91
2023/10/15 09:31:10;;;;;;;7.47;1.90;;;12.90;81.80;;;13.24;50.60;99063.53;5018512;27;124216;-86
2023/10/15 09:33:41;;;;;;;9.43;3.13;;;13.00;82.00;;;13.27;51.57;99062.91;5026913;28;123002;-79
2023/10/15 09:36:11;;;;;;;3.50;1.20;;;13.00;83.10;;;13.35;51.59;99064.06;5047705;27;118333;-89
2023/10/15 09:38:38;;;;;;;3.43;1.40;;;13.00;83.50;;;13.40;51.60;99069.47;5038199;27;118446;-90
2023/10/15 09:41:10;;;;;;;3.77;1.43;;;13.10;83.40;;;13.46;51.33;99073.72;5047377;27;123864;-89
2023/10/15 09:43:36;;;;;;;4.47;1.97;;;14.80;84.70;;;13.48;51.27;99063.09;5043208;27;123638;-91
2023/10/15 09:46:04;;;;;;;5.17;1.97;;;14.40;84.10;;;13.50;51.16;99071.91;5051723;27;118156;-92
2023/10/15 09:48:33;;;;;;;4.63;1.90;;;13.20;82.90;;;13.52;51.03;99077.97;5048476;27;118100;-91
2023/10/15 09:51:04;;;;;;;7.00;2.00;;;13.20;82.70;;;13.47;50.66;99081.72;5030543;27;124197;-91
2023/10/15 09:53:37;;;;;;;4.53;2.27;;;13.10;82.20;;;13.40;50.82;99069.47;5015162;27;122464;-92
2023/10/15 09:56:07;;;;;;;4.93;1.87;;;14.90;83.90;;;13.33;50.94;99066.38;5039888;27;120023;-93
2023/10/15 09:58:34;;;;;;;7.43;1.90;;;13.10;82.20;;;13.32;51.18;99092.47;5019302;28;118029;-92
2023/10/15 10:01:25;;;;;;;6.87;1.87;;;13.10;82.50;;;13.37;51.05;99067.34;5042159;27;123513;-93
2023/10/15 10:03:59;;;;;;;3.50;1.33;;;13.10;82.60;;;13.41;50.55;99085.78;5044635;27;123134;-93
2023/10/15 10:06:47;;;;;;;3.37;1.40;;;13.10;82.00;;;13.45;48.88;99066.53;5016127;27;120347;-93
2023/10/15 10:09:44;;;;;;;3.27;1.37;;;11.20;77.40;;;13.50;48.45;99066.38;5024083;27;119458;-93
2023/10/15 10:13:06;;;;;;;1.93;1.33;;;13.10;78.50;;;13.54;47.66;99061.81;5010365;27;123737;-95
2023/10/15 10:15:57;;;;;;;6.73;1.40;;;13.20;77.80;;;13.56;46.73;99064.25;5000167;27;123092;-93
2023/10/15 10:18:27;;;;;;;3.00;1.70;;;13.20;76.60;;;13.58;47.39;99067.53;5030559;27;118783;-94
2023/10/15 10:21:00;;;;;;;3.17;1.50;;;13.30;76.90;;;13.65;47.30;99068.69;5049852;27;118470;-93
2023/10/15 10:23:26;;;;;;;2.70;1.50;;;13.20;76.90;;;13.72;47.00;99050.69;5031488;27;124462;-94
2023/10/15 10:25:58;;;;;;;6.40;1.30;;;13.40;76.50;;;13.72;46.85;99057.06;5019939;28;124968;-93
2023/10/15 10:28:25;;;;;;;3.53;1.20;;;13.40;76.10;;;13.70;47.01;99057.41;5038265;27;118525;-94
2023/10/15 10:30:54;;;;;;;4.70;1.70;;;13.40;76.20;;;13.73;47.30;99060.66;5052005;27;118296;-95
2023/10/15 10:33:43;;;;;;;3.87;1.60;;;13.40;76.50;;;13.79;47.38;99062.13;5010042;28;123565;-94
2023/10/15 10:36:16;;;;;;;6.00;1.40;;;13.50;76.80;;;13.86;47.52;99057.72;5033897;27;124423;-95
2023/10/15 10:38:44;;;;;;;7.60;1.87;;;13.60;77.20;;;13.95;47.21;99049.38;5021850;28;119324;-95
2023/10/15 10:41:14;;;;;;;3.60;1.40;;;13.60;76.90;;;14.05;46.88;99043.50;5018970;27;118121;-94
2023/10/15 10:43:48;;;;;;;3.97;1.30;;;13.60;76.50;;;14.16;46.48;99055.06;5052523;27;123179;-93
2023/10/15 10:46:23;;;;;;;6.60;1.80;;;13.70;76.10;;;14.23;45.60;99043.44;5030776;27;123770;-93
2023/10/15 10:49:13;;;;;;;5.60;1.77;;;13.80;74.70;;;14.31;45.17;99040.63;5052969;27;119253;-92
2023/10/15 10:51:41;;;;;;;4.40;1.40;;;13.90;74.20;;;14.44;44.73;99049.09;5018151;28;118204;-92
2023/10/15 10:54:08;;;;;;;4.43;1.43;;;13.90;73.60;;;14.35;43.08;99027.72;5044265;27;124632;-93
2023/10/15 10:56:40;;;;;;;4.00;1.37;;;14.00;71.00;;;14.43;44.04;99055.81;5033704;27;123937;-88